Time;durP1;ratioP1;P1;durP2;ratioP2;P2;SDS_P1;SDS_P2;PMS_P1;PMS_P2;Temp;Humidity;BMP_temperature;BMP_pressure;BME280_temperature;BME280_humidity;BME280_pressure;Samples;Min_cycle;Max_cycle;Signal;HPM_P1;HPM_P2
2022/07/08 00:01:42;;;;;;;2.55;1.10;;;;;;;;;;4917167;29;20048;-66
2022/07/08 00:04:08;;;;;;;3.35;1.25;;;;;;;;;;4917055;29;20056;-65
2022/07/08 00:06:35;;;;;;;4.22;1.80;;;;;;;;;;4916755;29;20052;-65
2022/07/08 00:09:02;;;;;;;5.18;1.38;;;;;;;;;;4916541;29;20499;-65
2022/07/08 00:11:29;;;;;;;6.72;1.40;;;;;;;;;;4916932;29;20052;-66
2022/07/08 00:13:56;;;;;;;4.72;1.73;;;;;;;;;;4916634;29;20503;-65
2022/07/08 00:16:22;;;;;;;6.93;1.50;;;;;;;;;;4916724;29;20056;-65
2022/07/08 00:18:49;;;;;;;6.47;1.55;;;;;;;;;;4916270;29;20072;-66
2022/07/08 00:21:16;;;;;;;9.02;1.85;;;;;;;;;;4916564;29;20048;-65
2022/07/08 00:23:42;;;;;;;6.18;1.38;;;;;;;;;;4915285;29;20439;-65
2022/07/08 00:26:09;;;;;;;4.63;1.30;;;;;;;;;;4916497;29;20083;-65
2022/07/08 00:28:36;;;;;;;5.70;1.85;;;;;;;;;;4915019;29;20055;-65
2022/07/08 00:31:03;;;;;;;8.38;1.88;;;;;;;;;;4915200;29;20052;-65
2022/07/08 00:33:29;;;;;;;7.00;1.92;;;;;;;;;;4914145;29;20056;-65
2022/07/08 00:35:56;;;;;;;7.63;1.75;;;;;;;;;;4915177;29;20127;-65
2022/07/08 00:38:22;;;;;;;6.38;2.38;;;;;;;;;;4916150;29;20044;-65
2022/07/08 00:40:50;;;;;;;6.72;1.35;;;;;;;;;;4915011;29;20052;-64
2022/07/08 00:43:27;;;;;;;7.72;1.60;;;;;;;;;;4915837;29;20048;-65
2022/07/08 00:45:54;;;;;;;4.60;1.50;;;;;;;;;;4914898;29;20052;-66
2022/07/08 00:48:20;;;;;;;5.07;1.92;;;;;;;;;;4915000;29;20111;-65
2022/07/08 00:50:47;;;;;;;7.90;2.28;;;;;;;;;;4914861;29;20051;-65
2022/07/08 00:53:14;;;;;;;8.32;2.40;;;;;;;;;;4914708;29;20071;-66
2022/07/08 00:55:40;;;;;;;7.88;2.20;;;;;;;;;;4914843;29;20063;-67
2022/07/08 00:58:07;;;;;;;6.30;2.08;;;;;;;;;;4914700;29;20522;-65
2022/07/08 01:00:34;;;;;;;7.03;2.55;;;;;;;;;;4914657;29;20530;-65
2022/07/08 01:03:01;;;;;;;5.88;2.90;;;;;;;;;;4914944;29;20052;-66
2022/07/08 01:05:27;;;;;;;5.30;2.30;;;;;;;;;;4915653;29;20058;-65
2022/07/08 01:07:54;;;;;;;9.10;3.33;;;;;;;;;;4914385;29;20087;-65
2022/07/08 01:10:21;;;;;;;6.20;2.13;;;;;;;;;;4914531;29;20059;-65
2022/07/08 01:12:47;;;;;;;9.25;2.47;;;;;;;;;;4914548;29;20056;-66
2022/07/08 01:15:14;;;;;;;6.80;2.47;;;;;;;;;;4914252;29;20060;-65
2022/07/08 01:17:44;;;;;;;8.07;2.90;;;;;;;;;;4898924;29;20059;-66
2022/07/08 01:20:12;;;;;;;4.72;1.98;;;;;;;;;;4915719;29;20135;-65
2022/07/08 01:22:39;;;;;;;7.97;3.05;;;;;;;;;;4914441;29;20058;-67
2022/07/08 01:25:06;;;;;;;7.78;2.50;;;;;;;;;;4915584;29;20063;-66
2022/07/08 01:27:33;;;;;;;8.68;2.75;;;;;;;;;;4915311;29;20052;-67
2022/07/08 01:30:00;;;;;;;7.47;2.50;;;;;;;;;;4914352;29;20684;-65
2022/07/08 01:32:31;;;;;;;4.50;2.38;;;;;;;;;;4915638;29;20057;-66
2022/07/08 01:34:58;;;;;;;6.53;2.47;;;;;;;;;;4914279;29;20052;-65
2022/07/08 01:37:25;;;;;;;7.95;2.38;;;;;;;;;;4914163;29;20542;-65
2022/07/08 01:39:52;;;;;;;5.63;2.15;;;;;;;;;;4915236;29;20052;-66
2022/07/08 01:42:18;;;;;;;4.88;2.33;;;;;;;;;;4914135;29;20424;-65
2022/07/08 01:44:45;;;;;;;6.20;2.00;;;;;;;;;;4914044;29;20348;-65
2022/07/08 01:47:11;;;;;;;5.22;2.10;;;;;;;;;;4915552;29;20056;-65
2022/07/08 01:49:38;;;;;;;4.47;1.90;;;;;;;;;;4898402;29;20052;-65
2022/07/08 01:52:06;;;;;;;9.02;2.55;;;;;;;;;;4914422;29;20064;-65
2022/07/08 01:54:33;;;;;;;6.97;2.25;;;;;;;;;;4914249;29;20074;-65
2022/07/08 01:57:15;;;;;;;5.47;2.03;;;;;;;;;;4915205;29;20060;-66
2022/07/08 01:59:43;;;;;;;4.50;1.88;;;;;;;;;;4914102;29;20051;-66
2022/07/08 02:02:10;;;;;;;6.28;2.17;;;;;;;;;;4915316;29;20427;-64
2022/07/08 02:04:37;;;;;;;5.43;2.20;;;;;;;;;;4916152;29;20102;-65
2022/07/08 02:07:04;;;;;;;6.85;2.85;;;;;;;;;;4917784;29;20052;-66
2022/07/08 02:09:30;;;;;;;8.45;2.75;;;;;;;;;;4917369;29;20055;-65
2022/07/08 02:14:42;;;;;;;7.22;2.15;;;;;;;;;;4917796;29;20519;-66
2022/07/08 02:17:09;;;;;;;5.35;2.50;;;;;;;;;;4917712;29;20048;-65
2022/07/08 02:19:36;;;;;;;7.93;2.60;;;;;;;;;;4917379;29;20048;-64
2022/07/08 02:22:03;;;;;;;8.65;2.20;;;;;;;;;;4918983;29;20056;-65
2022/07/08 02:24:29;;;;;;;5.20;2.28;;;;;;;;;;4918639;29;20520;-64
2022/07/08 02:26:56;;;;;;;7.32;2.10;;;;;;;;;;4917430;29;20062;-64
2022/07/08 02:29:22;;;;;;;6.25;1.77;;;;;;;;;;4918722;29;20056;-65
2022/07/08 02:31:49;;;;;;;8.23;2.33;;;;;;;;;;4918676;29;20052;-64
2022/07/08 02:34:16;;;;;;;7.70;1.77;;;;;;;;;;4918443;29;20052;-64
2022/07/08 02:36:42;;;;;;;6.97;2.10;;;;;;;;;;4918782;29;20459;-66
2022/07/08 02:39:09;;;;;;;9.07;2.72;;;;;;;;;;4917064;29;20104;-64
2022/07/08 02:41:38;;;;;;;5.63;2.00;;;;;;;;;;4918542;29;20048;-64
2022/07/08 02:44:05;;;;;;;8.65;2.20;;;;;;;;;;4947719;23;20059;-71
2022/07/08 02:46:32;;;;;;;6.82;2.05;;;;;;;;;;4899110;29;20078;-70
2022/07/08 02:48:59;;;;;;;7.00;1.75;;;;;;;;;;4915386;29;20135;-70
2022/07/08 02:51:26;;;;;;;6.18;2.08;;;;;;;;;;4918623;29;20052;-70
2022/07/08 02:53:53;;;;;;;9.13;1.83;;;;;;;;;;4918234;29;20055;-70
2022/07/08 02:56:19;;;;;;;9.43;2.40;;;;;;;;;;4918388;29;20051;-70
2022/07/08 02:58:46;;;;;;;7.15;1.88;;;;;;;;;;4903217;29;20049;-71
2022/07/08 03:01:12;;;;;;;5.05;1.52;;;;;;;;;;4899372;29;20052;-70
2022/07/08 03:03:39;;;;;;;3.78;1.58;;;;;;;;;;4899060;29;20100;-70
2022/07/08 03:06:06;;;;;;;6.05;1.77;;;;;;;;;;4898259;29;20465;-70
2022/07/08 03:08:33;;;;;;;4.35;1.50;;;;;;;;;;4911238;29;20052;-71
2022/07/08 03:10:59;;;;;;;7.22;1.80;;;;;;;;;;4918077;29;20525;-69
2022/07/08 03:13:26;;;;;;;6.10;1.92;;;;;;;;;;4917930;29;20052;-71
2022/07/08 03:15:53;;;;;;;6.68;2.08;;;;;;;;;;4917413;29;20052;-70
2022/07/08 03:18:20;;;;;;;4.18;1.98;;;;;;;;;;4907039;29;20116;-70
2022/07/08 03:20:47;;;;;;;5.13;1.70;;;;;;;;;;4899181;29;20053;-70
2022/07/08 03:23:14;;;;;;;5.95;2.03;;;;;;;;;;4898804;29;20559;-70
2022/07/08 03:25:41;;;;;;;7.10;1.77;;;;;;;;;;4898835;29;20063;-70
2022/07/08 03:28:07;;;;;;;2.63;1.33;;;;;;;;;;4898637;29;20057;-70
2022/07/08 03:30:34;;;;;;;6.07;1.80;;;;;;;;;;4898486;29;20052;-70
2022/07/08 03:33:01;;;;;;;4.20;1.63;;;;;;;;;;4898846;29;20052;-70
2022/07/08 03:35:27;;;;;;;6.78;1.70;;;;;;;;;;4898724;29;20053;-70
2022/07/08 03:37:54;;;;;;;6.57;2.15;;;;;;;;;;4898624;29;20045;-69
2022/07/08 03:43:05;;;;;;;5.80;2.10;;;;;;;;;;4898354;29;20048;-70
2022/07/08 03:45:32;;;;;;;6.97;2.28;;;;;;;;;;4898310;29;20428;-69
2022/07/08 03:48:00;;;;;;;5.40;1.90;;;;;;;;;;4898329;29;20056;-70
2022/07/08 03:50:27;;;;;;;6.63;1.60;;;;;;;;;;4898812;29;20108;-69
2022/07/08 03:52:54;;;;;;;6.28;2.33;;;;;;;;;;4898395;29;20052;-70
2022/07/08 03:55:24;;;;;;;8.30;2.17;;;;;;;;;;4898279;29;20056;-69
2022/07/08 03:57:52;;;;;;;4.32;1.77;;;;;;;;;;4898043;29;20523;-69
2022/07/08 04:00:19;;;;;;;5.80;1.85;;;;;;;;;;4898349;29;20052;-70
2022/07/08 04:02:46;;;;;;;6.85;1.67;;;;;;;;;;4902116;29;20419;-70
2022/07/08 04:05:13;;;;;;;5.55;2.10;;;;;;;;;;4916973;29;20052;-70
2022/07/08 04:07:39;;;;;;;6.28;1.73;;;;;;;;;;4916955;29;20052;-71
2022/07/08 04:10:12;;;;;;;5.05;1.75;;;;;;;;;;4916678;29;20084;-71
2022/07/08 04:12:39;;;;;;;4.85;1.70;;;;;;;;;;4913352;29;20550;-71
2022/07/08 04:15:06;;;;;;;6.63;2.22;;;;;;;;;;4897685;29;20071;-71
2022/07/08 04:17:33;;;;;;;4.78;1.50;;;;;;;;;;4897825;29;20520;-71
2022/07/08 04:20:00;;;;;;;8.35;2.40;;;;;;;;;;4897591;29;20048;-71
2022/07/08 04:22:26;;;;;;;4.82;1.92;;;;;;;;;;4898371;29;20500;-71
2022/07/08 04:24:53;;;;;;;6.43;2.00;;;;;;;;;;4916538;29;20059;-70
2022/07/08 04:27:19;;;;;;;4.63;1.95;;;;;;;;;;4916000;29;20082;-71
2022/07/08 04:29:46;;;;;;;6.97;2.03;;;;;;;;;;4916267;29;20048;-71
2022/07/08 04:32:13;;;;;;;7.82;2.15;;;;;;;;;;4916569;29;20052;-71
2022/07/08 04:34:39;;;;;;;6.30;2.35;;;;;;;;;;4899206;29;20462;-71
2022/07/08 04:37:06;;;;;;;9.88;2.40;;;;;;;;;;4897388;29;20059;-71
2022/07/08 04:39:33;;;;;;;8.82;2.40;;;;;;;;;;4897303;29;20567;-72
2022/07/08 04:41:59;;;;;;;9.10;2.15;;;;;;;;;;4894619;29;20053;-71
2022/07/08 04:44:26;;;;;;;11.65;2.40;;;;;;;;;;4902364;29;20427;-70
2022/07/08 04:46:52;;;;;;;9.27;2.53;;;;;;;;;;4914449;29;20104;-70
2022/07/08 04:49:19;;;;;;;4.10;2.05;;;;;;;;;;4913950;29;20044;-71
2022/07/08 04:51:46;;;;;;;6.97;2.22;;;;;;;;;;4898071;29;20063;-70
2022/07/08 04:54:12;;;;;;;5.60;2.13;;;;;;;;;;4894106;29;20052;-71
2022/07/08 04:56:39;;;;;;;9.55;2.70;;;;;;;;;;4895195;29;20064;-72
2022/07/08 04:59:06;;;;;;;8.13;1.98;;;;;;;;;;4894130;29;20056;-71
2022/07/08 05:01:33;;;;;;;7.65;2.40;;;;;;;;;;4897916;29;20067;-71
2022/07/08 05:03:59;;;;;;;8.20;2.72;;;;;;;;;;4894723;29;20143;-71
2022/07/08 05:06:26;;;;;;;7.70;2.40;;;;;;;;;;4894027;29;20053;-71
2022/07/08 05:08:53;;;;;;;7.95;2.15;;;;;;;;;;4894829;29;20049;-70
2022/07/08 05:11:19;;;;;;;7.15;2.33;;;;;;;;;;4896355;29;20111;-69
2022/07/08 05:13:46;;;;;;;8.35;2.38;;;;;;;;;;4903366;29;20104;-70
2022/07/08 05:16:13;;;;;;;10.32;2.65;;;;;;;;;;4896256;29;20052;-70
2022/07/08 05:18:41;;;;;;;5.20;2.00;;;;;;;;;;4895066;29;20061;-71
2022/07/08 05:21:07;;;;;;;6.38;2.40;;;;;;;;;;4894562;29;20466;-71
2022/07/08 05:23:34;;;;;;;7.30;2.30;;;;;;;;;;4894944;29;20512;-71
2022/07/08 05:26:00;;;;;;;6.68;2.15;;;;;;;;;;4905355;29;20055;-70
2022/07/08 05:28:27;;;;;;;6.75;2.00;;;;;;;;;;4903159;29;20096;-71
2022/07/08 05:30:54;;;;;;;9.65;2.47;;;;;;;;;;4894686;29;20132;-70
2022/07/08 05:33:21;;;;;;;7.72;2.05;;;;;;;;;;4894373;29;20559;-70
2022/07/08 05:35:48;;;;;;;8.23;2.42;;;;;;;;;;4894703;29;20064;-71
2022/07/08 05:38:14;;;;;;;7.47;2.08;;;;;;;;;;4895468;29;20067;-71
2022/07/08 05:40:41;;;;;;;6.65;1.80;;;;;;;;;;4900969;29;20056;-71
2022/07/08 05:43:10;;;;;;;6.35;1.80;;;;;;;;;;4901163;29;20048;-71
2022/07/08 05:45:36;;;;;;;5.75;2.03;;;;;;;;;;4900658;29;20052;-71
2022/07/08 05:48:03;;;;;;;7.60;1.80;;;;;;;;;;4903435;29;20468;-69
2022/07/08 05:50:30;;;;;;;4.43;1.95;;;;;;;;;;4919839;29;20048;-70
2022/07/08 05:52:56;;;;;;;8.90;2.85;;;;;;;;;;4919935;29;20060;-71
2022/07/08 05:55:23;;;;;;;7.07;2.45;;;;;;;;;;4920354;29;20522;-72
2022/07/08 05:57:50;;;;;;;4.70;1.60;;;;;;;;;;4911255;29;20053;-73
2022/07/08 06:00:17;;;;;;;5.97;1.98;;;;;;;;;;4910327;29;20048;-73
2022/07/08 06:02:44;;;;;;;6.57;1.92;;;;;;;;;;4902948;29;20111;-74
2022/07/08 06:05:11;;;;;;;8.65;2.05;;;;;;;;;;4902864;29;20056;-74
2022/07/08 06:07:38;;;;;;;7.07;1.70;;;;;;;;;;4902506;29;20059;-72
2022/07/08 06:10:05;;;;;;;7.47;2.20;;;;;;;;;;4902371;29;20423;-74
2022/07/08 06:12:31;;;;;;;6.95;2.22;;;;;;;;;;4902722;29;20059;-74
2022/07/08 06:14:58;;;;;;;6.43;1.50;;;;;;;;;;4920354;29;20056;-74
2022/07/08 06:17:25;;;;;;;5.50;1.40;;;;;;;;;;4921409;29;20071;-75
2022/07/08 06:19:51;;;;;;;7.28;1.98;;;;;;;;;;4921546;29;20555;-74
2022/07/08 06:22:18;;;;;;;7.00;1.73;;;;;;;;;;4922141;29;20055;-73
2022/07/08 06:24:44;;;;;;;7.00;1.58;;;;;;;;;;4920421;29;20519;-74
2022/07/08 06:27:12;;;;;;;7.13;1.75;;;;;;;;;;4902624;29;20052;-73
2022/07/08 06:29:38;;;;;;;9.73;1.70;;;;;;;;;;4902257;29;20052;-73
2022/07/08 06:32:05;;;;;;;4.43;1.65;;;;;;;;;;4902563;29;20057;-74
2022/07/08 06:34:32;;;;;;;5.07;1.58;;;;;;;;;;4902703;29;20048;-74
2022/07/08 06:36:59;;;;;;;5.15;1.45;;;;;;;;;;4902840;29;20057;-74
2022/07/08 06:39:26;;;;;;;4.72;1.20;;;;;;;;;;4921278;29;20060;-74
2022/07/08 06:41:52;;;;;;;7.50;1.15;;;;;;;;;;4921400;29;20056;-73
2022/07/08 06:44:19;;;;;;;4.88;1.02;;;;;;;;;;4921079;29;20132;-73
2022/07/08 06:46:45;;;;;;;6.25;1.20;;;;;;;;;;4921579;29;20060;-73
2022/07/08 06:49:12;;;;;;;4.25;1.00;;;;;;;;;;4917526;29;20052;-73
2022/07/08 06:51:39;;;;;;;6.03;1.58;;;;;;;;;;4898854;29;20055;-73
2022/07/08 06:56:50;;;;;;;5.65;1.38;;;;;;;;;;4899482;29;20677;-74
2022/07/08 06:59:17;;;;;;;5.88;1.25;;;;;;;;;;4899332;29;20063;-74
2022/07/08 07:01:44;;;;;;;5.60;1.35;;;;;;;;;;4903809;29;20108;-74
2022/07/08 07:04:10;;;;;;;4.85;1.13;;;;;;;;;;4918265;29;20051;-74
2022/07/08 07:06:38;;;;;;;3.08;1.00;;;;;;;;;;4918286;29;20054;-73
2022/07/08 07:09:04;;;;;;;5.20;1.13;;;;;;;;;;4917934;29;20059;-74
2022/07/08 07:11:31;;;;;;;3.83;0.90;;;;;;;;;;4917896;29;20658;-74
2022/07/08 07:13:57;;;;;;;2.33;0.98;;;;;;;;;;4913215;29;20044;-73
2022/07/08 07:16:24;;;;;;;4.10;0.90;;;;;;;;;;4899997;29;20071;-75
2022/07/08 07:18:52;;;;;;;5.65;0.80;;;;;;;;;;4899081;29;20080;-74
2022/07/08 07:21:18;;;;;;;4.22;1.58;;;;;;;;;;4899090;29;20071;-74
2022/07/08 07:23:45;;;;;;;4.03;1.30;;;;;;;;;;4897777;29;20060;-74
2022/07/08 07:26:11;;;;;;;5.03;0.93;;;;;;;;;;4904731;29;20412;-73
2022/07/08 07:28:38;;;;;;;2.75;0.80;;;;;;;;;;4917730;29;20423;-74
2022/07/08 07:31:05;;;;;;;4.53;1.30;;;;;;;;;;4917513;29;20052;-74
2022/07/08 07:33:31;;;;;;;3.70;0.80;;;;;;;;;;4917632;29;20048;-74
2022/07/08 07:35:58;;;;;;;4.35;1.20;;;;;;;;;;4917538;29;20052;-74
2022/07/08 07:38:25;;;;;;;3.78;1.13;;;;;;;;;;4907728;29;20468;-74
2022/07/08 07:40:52;;;;;;;4.25;1.23;;;;;;;;;;4898564;29;20048;-74
2022/07/08 07:43:18;;;;;;;5.40;1.10;;;;;;;;;;4898515;29;20556;-75
2022/07/08 07:45:45;;;;;;;8.30;1.20;;;;;;;;;;4898414;29;20064;-74
2022/07/08 07:48:12;;;;;;;5.35;1.23;;;;;;;;;;4897310;29;20127;-74
2022/07/08 07:50:39;;;;;;;1.90;0.85;;;;;;;;;;4906964;29;20044;-74
2022/07/08 07:53:05;;;;;;;6.60;1.73;;;;;;;;;;4917181;29;20047;-74
2022/07/08 07:55:32;;;;;;;5.13;1.02;;;;;;;;;;4918773;29;20507;-74
2022/07/08 07:57:59;;;;;;;4.18;1.10;;;;;;;;;;4917262;29;20067;-74
2022/07/08 08:00:26;;;;;;;4.90;1.10;;;;;;;;;;4918482;29;20155;-74
2022/07/08 08:02:55;;;;;;;4.22;1.10;;;;;;;;;;4907338;29;20057;-75
2022/07/08 08:05:22;;;;;;;4.05;0.90;;;;;;;;;;4902381;29;20049;-74
2022/07/08 08:07:49;;;;;;;5.38;1.27;;;;;;;;;;4919109;29;20499;-73
2022/07/08 08:10:15;;;;;;;3.15;0.82;;;;;;;;;;4917177;29;20052;-73
2022/07/08 08:12:42;;;;;;;2.88;1.17;;;;;;;;;;4915609;29;20056;-73
2022/07/08 08:15:09;;;;;;;5.07;1.30;;;;;;;;;;4907905;29;20056;-73
2022/07/08 08:17:37;;;;;;;3.30;1.25;;;;;;;;;;4897877;29;20052;-74
2022/07/08 08:20:05;;;;;;;4.32;1.15;;;;;;;;;;4897714;29;20136;-75
2022/07/08 08:22:32;;;;;;;4.50;1.10;;;;;;;;;;4898114;29;20084;-74
2022/07/08 08:24:59;;;;;;;4.97;1.45;;;;;;;;;;4904625;29;20389;-74
2022/07/08 08:27:25;;;;;;;3.17;1.00;;;;;;;;;;4915577;29;20444;-74
2022/07/08 08:29:52;;;;;;;3.35;1.17;;;;;;;;;;4916395;29;20056;-74
2022/07/08 08:32:18;;;;;;;3.05;1.13;;;;;;;;;;4914592;29;20057;-75
2022/07/08 08:34:46;;;;;;;5.65;1.30;;;;;;;;;;4897517;29;20127;-74
2022/07/08 08:37:13;;;;;;;6.90;1.25;;;;;;;;;;4897884;29;20130;-74
2022/07/08 08:39:40;;;;;;;3.25;1.15;;;;;;;;;;4897556;29;20135;-74
2022/07/08 08:42:07;;;;;;;4.05;1.00;;;;;;;;;;4896497;29;20055;-75
2022/07/08 08:44:34;;;;;;;3.47;1.77;;;;;;;;;;4879172;29;20060;-74
2022/07/08 08:47:02;;;;;;;3.05;1.00;;;;;;;;;;4878868;29;20057;-75
2022/07/08 08:49:32;;;;;;;3.40;1.20;;;;;;;;;;4878402;29;20053;-74
2022/07/08 08:51:58;;;;;;;2.75;1.02;;;;;;;;;;4880111;29;20527;-74
2022/07/08 08:54:25;;;;;;;4.80;1.33;;;;;;;;;;4892925;29;20100;-74
2022/07/08 08:56:52;;;;;;;5.38;1.35;;;;;;;;;;4892773;29;20056;-73
2022/07/08 08:59:24;;;;;;;3.75;0.98;;;;;;;;;;4877110;29;20492;-73
2022/07/08 09:01:51;;;;;;;6.35;1.55;;;;;;;;;;4898452;29;20043;-72
2022/07/08 09:04:18;;;;;;;4.35;1.65;;;;;;;;;;4914138;29;20056;-74
2022/07/08 09:06:45;;;;;;;3.20;0.98;;;;;;;;;;4915116;29;20052;-74
2022/07/08 09:09:11;;;;;;;3.85;1.30;;;;;;;;;;4913747;29;20510;-74
2022/07/08 09:11:39;;;;;;;1.95;0.93;;;;;;;;;;4889337;29;20048;-66
2022/07/08 09:14:17;;;;;;;5.75;1.38;;;;;;;;;;4888880;29;20201;-74
2022/07/08 09:17:06;;;;;;;4.82;1.27;;;;;;;;;;4883652;29;20053;-74
2022/07/08 09:19:33;;;;;;;2.72;1.02;;;;;;;;;;4885278;29;20164;-70
2022/07/08 09:22:04;;;;;;;5.43;1.48;;;;;;;;;;4884783;29;20468;-69
2022/07/08 09:24:32;;;;;;;2.90;1.20;;;;;;;;;;4890936;29;20080;-68
2022/07/08 09:27:06;;;;;;;4.18;1.10;;;;;;;;;;4884654;29;20051;-69
2022/07/08 09:29:32;;;;;;;5.82;1.23;;;;;;;;;;4882423;29;20064;-67
2022/07/08 09:32:10;;;;;;;6.55;1.35;;;;;;;;;;4892637;29;20060;-72
2022/07/08 09:34:38;;;;;;;3.65;1.00;;;;;;;;;;4888559;29;20064;-70
2022/07/08 09:37:13;;;;;;;3.08;1.00;;;;;;;;;;4882793;29;20049;-68
2022/07/08 09:39:40;;;;;;;4.00;1.58;;;;;;;;;;4888347;29;20060;-69
2022/07/08 09:42:07;;;;;;;3.42;1.05;;;;;;;;;;4883291;29;20056;-68
2022/07/08 09:44:35;;;;;;;3.75;1.20;;;;;;;;;;4884075;29;20504;-71
2022/07/08 09:47:11;;;;;;;2.85;1.00;;;;;;;;;;4882530;29;20060;-72
2022/07/08 09:49:48;;;;;;;4.10;0.70;;;;;;;;;;4887077;29;20057;-71
2022/07/08 09:52:22;;;;;;;3.20;1.05;;;;;;;;;;4884429;29;20077;-72
2022/07/08 09:55:00;;;;;;;3.92;0.90;;;;;;;;;;4884031;29;20060;-72
2022/07/08 09:57:27;;;;;;;4.88;0.95;;;;;;;;;;4882850;29;20064;-71
2022/07/08 09:59:54;;;;;;;4.00;1.20;;;;;;;;;;4882747;29;20056;-73
2022/07/08 10:02:21;;;;;;;6.82;1.58;;;;;;;;;;4884214;29;20509;-72
2022/07/08 10:04:51;;;;;;;4.70;0.90;;;;;;;;;;4885243;29;20131;-70
2022/07/08 10:07:18;;;;;;;4.30;1.20;;;;;;;;;;4882167;29;20055;-68
2022/07/08 10:09:45;;;;;;;2.67;0.98;;;;;;;;;;4883087;29;20053;-69
2022/07/08 10:12:17;;;;;;;2.20;0.80;;;;;;;;;;4884804;29;20516;-66
2022/07/08 10:14:46;;;;;;;3.08;1.00;;;;;;;;;;4884945;29;20071;-67
2022/07/08 10:17:16;;;;;;;3.28;0.82;;;;;;;;;;4886764;29;20416;-68
2022/07/08 10:19:42;;;;;;;4.90;1.17;;;;;;;;;;4881162;29;20057;-69
2022/07/08 10:22:09;;;;;;;3.25;1.02;;;;;;;;;;4867460;29;20124;-69
2022/07/08 10:24:39;;;;;;;2.58;0.75;;;;;;;;;;4868840;29;20421;-68
2022/07/08 10:27:08;;;;;;;3.83;1.02;;;;;;;;;;4887092;29;20052;-67
2022/07/08 10:29:39;;;;;;;2.65;1.20;;;;;;;;;;4885294;29;20049;-71
2022/07/08 10:32:27;;;;;;;4.43;1.13;;;;;;;;;;4888790;29;20429;-69
2022/07/08 10:35:10;;;;;;;2.70;0.70;;;;;;;;;;4888594;29;20511;-70
2022/07/08 10:37:54;;;;;;;3.70;1.10;;;;;;;;;;4890730;29;20063;-72
2022/07/08 10:40:50;;;;;;;5.85;1.30;;;;;;;;;;4889943;29;20504;-70
2022/07/08 10:43:23;;;;;;;4.60;0.85;;;;;;;;;;4888009;29;20144;-70
2022/07/08 10:46:02;;;;;;;3.75;0.77;;;;;;;;;;4893599;29;20053;-71
2022/07/08 10:48:45;;;;;;;2.95;0.80;;;;;;;;;;4894046;29;20057;-70
2022/07/08 10:51:17;;;;;;;6.70;1.00;;;;;;;;;;4887108;29;20492;-69
2022/07/08 10:54:05;;;;;;;4.72;0.70;;;;;;;;;;4891071;29;20088;-70
2022/07/08 10:56:54;;;;;;;4.75;0.90;;;;;;;;;;4886090;29;20057;-72
2022/07/08 10:59:28;;;;;;;4.00;0.82;;;;;;;;;;4890147;29;20395;-73
2022/07/08 11:02:12;;;;;;;3.15;0.75;;;;;;;;;;4888484;29;20413;-72
2022/07/08 11:04:39;;;;;;;5.95;1.35;;;;;;;;;;4889030;29;20056;-73
2022/07/08 11:07:20;;;;;;;3.05;0.77;;;;;;;;;;4888759;29;20049;-70
2022/07/08 11:09:52;;;;;;;4.30;0.93;;;;;;;;;;4888157;29;20057;-72
2022/07/08 11:12:20;;;;;;;3.03;0.77;;;;;;;;;;4886190;29;20501;-72
2022/07/08 11:14:48;;;;;;;2.47;1.00;;;;;;;;;;4887269;29;20060;-72
2022/07/08 11:17:16;;;;;;;3.45;1.08;;;;;;;;;;4889043;29;20469;-72
2022/07/08 11:19:44;;;;;;;2.95;1.08;;;;;;;;;;4885402;29;20056;-72
2022/07/08 11:22:11;;;;;;;4.75;1.88;;;;;;;;;;4886787;29;20049;-71
2022/07/08 11:24:50;;;;;;;4.57;0.90;;;;;;;;;;4887339;29;20045;-71
2022/07/08 11:27:25;;;;;;;7.40;1.35;;;;;;;;;;4885075;29;20060;-71
2022/07/08 11:29:52;;;;;;;4.25;1.08;;;;;;;;;;4886115;29;20614;-70
2022/07/08 11:32:20;;;;;;;3.90;1.15;;;;;;;;;;4884762;29;20045;-70
2022/07/08 11:34:48;;;;;;;4.68;0.80;;;;;;;;;;4887929;29;20439;-70
2022/07/08 11:37:16;;;;;;;1.85;0.60;;;;;;;;;;4891425;29;21507;-71
2022/07/08 11:39:43;;;;;;;4.07;0.95;;;;;;;;;;4884869;29;20056;-65
2022/07/08 11:42:11;;;;;;;4.60;0.90;;;;;;;;;;4885394;29;20500;-66
2022/07/08 11:44:38;;;;;;;4.97;0.95;;;;;;;;;;4891130;29;20052;-66
2022/07/08 11:47:05;;;;;;;4.13;0.77;;;;;;;;;;4886120;29;20048;-66
2022/07/08 11:49:32;;;;;;;3.65;0.73;;;;;;;;;;4887427;29;20053;-66
2022/07/08 11:51:59;;;;;;;3.10;0.60;;;;;;;;;;4888413;29;20049;-66
2022/07/08 11:54:28;;;;;;;2.08;0.75;;;;;;;;;;4884292;29;20053;-65
2022/07/08 11:56:56;;;;;;;3.28;0.93;;;;;;;;;;4885978;29;20060;-66
2022/07/08 11:59:25;;;;;;;3.67;0.80;;;;;;;;;;4884384;29;20052;-65
2022/07/08 12:01:53;;;;;;;2.00;0.65;;;;;;;;;;4887442;29;20055;-66
2022/07/08 12:04:19;;;;;;;3.28;0.95;;;;;;;;;;4883701;29;20053;-66
2022/07/08 12:06:55;;;;;;;4.50;0.77;;;;;;;;;;4884243;29;20057;-65
2022/07/08 12:09:22;;;;;;;4.32;0.95;;;;;;;;;;4886018;29;20053;-66
2022/07/08 12:11:51;;;;;;;2.05;0.90;;;;;;;;;;4884235;29;20049;-66
2022/07/08 12:14:18;;;;;;;4.25;1.35;;;;;;;;;;4893516;29;20075;-65
2022/07/08 12:16:47;;;;;;;2.50;0.90;;;;;;;;;;4892022;29;20056;-66
2022/07/08 12:19:27;;;;;;;6.03;1.15;;;;;;;;;;4885469;29;20044;-66
2022/07/08 12:21:54;;;;;;;2.60;0.75;;;;;;;;;;4886335;29;20045;-65
2022/07/08 12:24:27;;;;;;;2.63;0.88;;;;;;;;;;4883372;29;20061;-66
2022/07/08 12:26:54;;;;;;;;;;;;;;;;;;4888559;29;20045;-65
2022/07/08 12:29:21;;;;;;;3.75;0.80;;;;;;;;;;4883858;29;19935;-66
2022/07/08 12:31:48;;;;;;;5.95;1.27;;;;;;;;;;4885175;29;20059;-64
2022/07/08 12:34:17;;;;;;;3.85;0.77;;;;;;;;;;4883954;29;20075;-65
2022/07/08 12:36:44;;;;;;;3.15;0.70;;;;;;;;;;4888179;29;20543;-65
2022/07/08 12:39:15;;;;;;;4.32;0.82;;;;;;;;;;4883172;29;20521;-66
2022/07/08 12:41:45;;;;;;;2.90;0.88;;;;;;;;;;4884216;29;20057;-66
2022/07/08 12:44:28;;;;;;;2.65;0.68;;;;;;;;;;4886021;29;20060;-65
2022/07/08 12:46:56;;;;;;;2.70;0.70;;;;;;;;;;4885791;29;20458;-66
2022/07/08 12:49:26;;;;;;;3.20;0.70;;;;;;;;;;4883069;29;20520;-66
2022/07/08 12:51:53;;;;;;;4.78;1.08;;;;;;;;;;4887759;29;20045;-66
2022/07/08 12:54:22;;;;;;;3.20;1.05;;;;;;;;;;4882971;29;20045;-67
2022/07/08 12:56:50;;;;;;;2.88;0.50;;;;;;;;;;4889082;29;20052;-66
2022/07/08 12:59:17;;;;;;;1.90;0.70;;;;;;;;;;4883176;29;20049;-65
2022/07/08 13:01:43;;;;;;;4.60;0.85;;;;;;;;;;4885063;29;20118;-67
2022/07/08 13:04:10;;;;;;;3.35;0.73;;;;;;;;;;4883112;29;20387;-66
2022/07/08 13:06:37;;;;;;;3.38;0.85;;;;;;;;;;4888466;29;20059;-66
2022/07/08 13:09:04;;;;;;;2.97;1.00;;;;;;;;;;4883025;29;20057;-66
2022/07/08 13:11:37;;;;;;;4.40;0.95;;;;;;;;;;4883711;29;20059;-66
2022/07/08 13:14:04;;;;;;;4.65;0.70;;;;;;;;;;4884310;29;20564;-66
2022/07/08 13:16:31;;;;;;;6.82;0.73;;;;;;;;;;4884343;29;20057;-66
2022/07/08 13:18:58;;;;;;;7.75;1.17;;;;;;;;;;4885113;29;20045;-67
2022/07/08 13:21:25;;;;;;;5.32;0.70;;;;;;;;;;4890588;29;20398;-66
2022/07/08 13:23:55;;;;;;;2.35;0.82;;;;;;;;;;4887202;29;20052;-66
2022/07/08 13:26:22;;;;;;;4.90;0.68;;;;;;;;;;4885541;29;20112;-65
2022/07/08 13:28:51;;;;;;;2.25;0.80;;;;;;;;;;4884284;29;20048;-65
2022/07/08 13:31:19;;;;;;;6.32;0.90;;;;;;;;;;4892053;29;20081;-65
2022/07/08 13:33:48;;;;;;;5.20;0.95;;;;;;;;;;4891245;29;20060;-65
2022/07/08 13:36:15;;;;;;;1.63;0.80;;;;;;;;;;4890069;29;20055;-66
2022/07/08 13:38:43;;;;;;;1.65;0.63;;;;;;;;;;4888396;29;20060;-65
2022/07/08 13:41:09;;;;;;;2.95;0.60;;;;;;;;;;4892209;29;20075;-65
2022/07/08 13:43:38;;;;;;;1.45;0.68;;;;;;;;;;4889807;29;20049;-65
2022/07/08 13:46:07;;;;;;;2.42;0.70;;;;;;;;;;4889763;29;20056;-66
2022/07/08 13:48:34;;;;;;;1.70;1.05;;;;;;;;;;4891804;29;20057;-65
2022/07/08 13:51:01;;;;;;;4.88;1.30;;;;;;;;;;4890192;29;20080;-66
2022/07/08 13:53:29;;;;;;;7.07;1.65;;;;;;;;;;4888825;29;20052;-64
2022/07/08 13:55:56;;;;;;;2.40;0.70;;;;;;;;;;4886656;29;20124;-64
2022/07/08 13:58:23;;;;;;;5.78;1.60;;;;;;;;;;4883297;29;20056;-65
2022/07/08 14:00:50;;;;;;;4.78;0.95;;;;;;;;;;4890776;29;20524;-65
2022/07/08 14:03:16;;;;;;;2.28;0.77;;;;;;;;;;4891167;29;20049;-65
2022/07/08 14:05:43;;;;;;;2.83;0.70;;;;;;;;;;4891953;29;20135;-65
2022/07/08 14:08:10;;;;;;;3.03;0.90;;;;;;;;;;4893201;29;20057;-65
2022/07/08 14:10:57;;;;;;;1.95;0.90;;;;;;;;;;4892354;29;20053;-67
2022/07/08 14:13:23;;;;;;;3.13;1.00;;;;;;;;;;4890087;29;20052;-66
2022/07/08 14:15:51;;;;;;;2.42;0.80;;;;;;;;;;4887357;29;20057;-66
2022/07/08 14:18:18;;;;;;;3.10;0.88;;;;;;;;;;4886900;29;20056;-66
2022/07/08 14:20:48;;;;;;;3.05;1.00;;;;;;;;;;4886955;29;20049;-65
2022/07/08 14:23:15;;;;;;;1.17;0.70;;;;;;;;;;4888505;29;20096;-66
2022/07/08 14:25:42;;;;;;;3.85;0.98;;;;;;;;;;4886999;29;20446;-66
2022/07/08 14:28:08;;;;;;;3.45;0.80;;;;;;;;;;4889409;29;20056;-66
2022/07/08 14:30:35;;;;;;;4.30;0.98;;;;;;;;;;4890554;29;20048;-66
2022/07/08 14:33:02;;;;;;;3.30;0.80;;;;;;;;;;4888802;29;20049;-66
2022/07/08 14:35:28;;;;;;;2.30;0.73;;;;;;;;;;4885129;29;20053;-65
2022/07/08 14:37:56;;;;;;;1.70;0.75;;;;;;;;;;4883852;29;20056;-65
2022/07/08 14:40:22;;;;;;;2.72;1.35;;;;;;;;;;4885671;29;20417;-66
2022/07/08 14:42:49;;;;;;;1.48;0.93;;;;;;;;;;4883826;29;20052;-65
2022/07/08 14:45:16;;;;;;;2.15;0.73;;;;;;;;;;4884818;29;20056;-65
2022/07/08 14:47:42;;;;;;;4.95;1.38;;;;;;;;;;4883435;29;20053;-66
2022/07/08 14:50:09;;;;;;;4.15;1.20;;;;;;;;;;4884837;29;20059;-65
2022/07/08 14:52:36;;;;;;;3.15;1.20;;;;;;;;;;4884364;29;20789;-66
2022/07/08 14:55:03;;;;;;;3.60;1.17;;;;;;;;;;4884635;29;20056;-66
2022/07/08 14:57:32;;;;;;;3.78;0.95;;;;;;;;;;4885186;29;20465;-65